Time;durP1;ratioP1;P1;durP2;ratioP2;P2;SDS_P1;SDS_P2;PMS_P1;PMS_P2;Temp;Humidity;BMP_temperature;BMP_pressure;BME280_temperature;BME280_humidity;BME280_pressure;Samples;Min_cycle;Max_cycle;Signal;HPM_P1;HPM_P2
2023/05/18 00:02:14;;;;;;;3.90;0.30;;;;;;;6.80;37.88;102887.53;5082817;28;20075;-71
2023/05/18 00:04:40;;;;;;;3.20;0.40;;;;;;;6.66;38.00;102894.31;5085374;27;20027;-71
2023/05/18 00:07:06;;;;;;;5.25;0.30;;;;;;;6.73;37.85;102885.75;5084524;27;20632;-71
2023/05/18 00:09:34;;;;;;;4.70;0.25;;;;;;;6.74;37.52;102882.28;5101189;27;20027;-71
2023/05/18 00:12:00;;;;;;;2.15;0.40;;;;;;;6.57;38.41;102886.47;5088532;27;20035;-72
2023/05/18 00:14:26;;;;;;;7.32;1.10;;;;;;;6.84;37.66;102888.41;5081055;27;20693;-71
2023/05/18 00:16:54;;;;;;;7.05;0.47;;;;;;;6.88;37.74;102884.97;5084116;27;20032;-69
2023/05/18 00:19:21;;;;;;;4.40;0.75;;;;;;;6.91;37.80;102890.22;5085391;27;20016;-71
2023/05/18 00:21:47;;;;;;;5.15;1.08;;;;;;;6.90;38.30;102888.47;5082941;27;20118;-72
2023/05/18 00:24:16;;;;;;;9.80;0.50;;;;;;;7.01;38.27;102885.94;5085062;27;20100;-72
2023/05/18 00:26:45;;;;;;;8.07;0.52;;;;;;;7.02;37.80;102890.28;5086414;27;20055;-71
2023/05/18 00:29:11;;;;;;;7.40;0.52;;;;;;;6.94;38.27;102887.63;5084586;27;20046;-71
2023/05/18 00:31:38;;;;;;;8.13;0.52;;;;;;;6.95;38.35;102886.75;5084166;27;20939;-71
2023/05/18 00:34:09;;;;;;;1.08;0.30;;;;;;;7.00;38.42;102885.09;5087508;27;20105;-71
2023/05/18 00:36:36;;;;;;;1.60;0.30;;;;;;;6.96;38.80;102890.25;5082281;27;20059;-71
2023/05/18 00:39:03;;;;;;;3.58;0.47;;;;;;;6.96;38.97;102895.47;5086775;27;20039;-71
2023/05/18 00:41:29;;;;;;;5.25;0.50;;;;;;;6.80;39.42;102887.53;5084991;27;20055;-70
2023/05/18 00:43:55;;;;;;;3.75;0.40;;;;;;;6.77;39.31;102886.63;5068762;28;20544;-70
2023/05/18 00:46:23;;;;;;;6.40;0.60;;;;;;;6.85;39.01;102891.03;5082385;27;20031;-71
2023/05/18 00:48:53;;;;;;;3.78;0.50;;;;;;;6.79;39.17;102888.38;5084014;27;20032;-71
2023/05/18 00:51:22;;;;;;;3.17;0.40;;;;;;;6.77;39.49;102892.69;5086287;27;20572;-70
2023/05/18 00:53:48;;;;;;;2.88;0.60;;;;;;;6.73;39.43;102890.06;5099100;27;20039;-71
2023/05/18 00:56:14;;;;;;;1.77;0.30;;;;;;;6.89;39.16;102895.41;5086738;27;20040;-71
2023/05/18 00:58:41;;;;;;;5.53;0.40;;;;;;;6.69;38.17;102894.38;5067991;28;20269;-71
2023/05/18 01:01:08;;;;;;;2.65;0.30;;;;;;;6.44;39.25;102891.56;5082715;27;20035;-70
2023/05/18 01:03:37;;;;;;;7.15;1.23;;;;;;;6.62;38.71;102892.56;5081637;27;20040;-72
2023/05/18 01:06:04;;;;;;;4.18;0.50;;;;;;;6.56;38.29;102895.13;5082252;27;20039;-71
2023/05/18 01:08:31;;;;;;;4.38;0.73;;;;;;;6.63;37.73;102896.91;5084724;27;20114;-70
2023/05/18 01:11:33;;;;;;;4.63;0.30;;;;;;;6.64;37.70;102901.25;5086722;27;20035;-71
2023/05/18 01:14:12;;;;;;;7.18;0.77;;;;;;;6.63;37.86;102894.31;5070844;28;20465;-71
2023/05/18 01:17:16;;;;;;;7.15;0.40;;;;;;;6.52;38.05;102898.53;5082307;27;20039;-71
2023/05/18 01:20:09;;;;;;;4.30;0.88;;;;;;;6.60;38.33;102889.97;5043838;27;20614;-70
2023/05/18 01:23:12;;;;;;;2.72;0.80;;;;;;;6.59;38.09;102893.41;5099998;27;20062;-70
2023/05/18 01:25:53;;;;;;;1.20;0.30;;;;;;;6.76;38.27;102884.91;5080228;27;20177;-70
2023/05/18 01:28:30;;;;;;;5.47;0.43;;;;;;;6.76;38.21;102885.75;5080320;27;20126;-71
2023/05/18 01:30:57;;;;;;;10.10;0.70;;;;;;;6.84;38.26;102881.50;5082321;28;20046;-70
2023/05/18 01:33:24;;;;;;;5.80;0.30;;;;;;;6.77;38.63;102886.63;5078486;27;20049;-70
2023/05/18 01:35:49;;;;;;;5.35;0.77;;;;;;;6.74;37.91;102892.69;5084742;27;20044;-71
2023/05/18 01:38:19;;;;;;;4.70;0.50;;;;;;;6.74;38.39;102878.81;5066536;28;20043;-70
2023/05/18 01:41:21;;;;;;;2.75;0.30;;;;;;;6.78;38.43;102885.78;5082035;27;20032;-72
2023/05/18 01:43:55;;;;;;;7.63;0.68;;;;;;;6.86;38.09;102898.00;5073461;28;20128;-70
2023/05/18 01:46:58;;;;;;;1.55;0.30;;;;;;;6.96;38.00;102887.66;5099548;27;20031;-71
2023/05/18 01:49:38;;;;;;;2.17;0.20;;;;;;;6.70;38.00;102891.75;5072489;28;20292;-71
2023/05/18 01:52:10;;;;;;;6.20;0.50;;;;;;;6.64;38.98;102899.53;5069051;28;20048;-71
2023/05/18 01:54:41;;;;;;;4.95;0.73;;;;;;;6.80;38.27;102897.06;5079527;27;20032;-71
2023/05/18 01:57:08;;;;;;;2.50;0.30;;;;;;;6.77;38.87;102892.69;5086103;27;20040;-71
2023/05/18 01:59:35;;;;;;;3.35;0.25;;;;;;;7.07;38.21;102894.66;5079237;28;20537;-71
2023/05/18 02:02:02;;;;;;;3.30;0.43;;;;;;;7.17;38.18;102895.59;5067669;28;20039;-70
2023/05/18 02:04:27;;;;;;;4.22;0.50;;;;;;;7.22;38.05;102899.13;5079940;28;20565;-71
2023/05/18 02:06:54;;;;;;;4.93;0.30;;;;;;;7.25;38.57;102901.72;5083326;28;20035;-71
2023/05/18 02:09:20;;;;;;;5.88;0.35;;;;;;;7.19;39.15;102903.41;5082867;28;20038;-71
2023/05/18 02:11:47;;;;;;;4.35;0.60;;;;;;;7.14;39.03;102908.59;5093075;27;20035;-70
2023/05/18 02:14:12;;;;;;;8.23;0.52;;;;;;;7.02;39.67;102906.78;5082507;28;21046;-70
2023/05/18 02:16:38;;;;;;;4.40;0.63;;;;;;;6.93;40.12;102898.88;5076063;28;20023;-71
2023/05/18 02:19:04;;;;;;;3.65;0.82;;;;;;;6.80;40.63;102900.53;5087205;28;20114;-71
2023/05/18 02:21:29;;;;;;;5.53;0.70;;;;;;;6.78;40.92;102897.03;5079260;28;20122;-70
2023/05/18 02:23:55;;;;;;;2.35;0.50;;;;;;;6.94;40.61;102897.16;5083492;28;20032;-71
2023/05/18 02:26:21;;;;;;;2.70;0.50;;;;;;;7.00;40.94;102897.19;5078589;28;20116;-70
2023/05/18 02:28:51;;;;;;;2.63;0.43;;;;;;;7.03;40.80;102898.09;5077283;28;20575;-70
2023/05/18 02:31:16;;;;;;;3.70;0.45;;;;;;;6.95;40.85;102898.91;5081976;28;20104;-71
2023/05/18 02:33:42;;;;;;;4.68;0.70;;;;;;;6.87;41.17;102904.91;5058746;28;20067;-72
2023/05/18 02:36:08;;;;;;;4.95;0.75;;;;;;;6.93;41.07;102898.00;5100968;27;20084;-71
2023/05/18 02:38:42;;;;;;;4.10;0.60;;;;;;;6.81;41.84;102899.66;5077481;28;20071;-72
2023/05/18 02:41:08;;;;;;;3.53;0.50;;;;;;;6.72;41.72;102899.59;5095416;27;20109;-71
2023/05/18 02:43:34;;;;;;;1.65;0.40;;;;;;;6.78;41.99;102898.78;5075978;28;20357;-71
2023/05/18 02:46:01;;;;;;;6.60;0.80;;;;;;;6.96;41.38;102904.13;5084693;28;20596;-71
2023/05/18 02:48:27;;;;;;;6.28;0.70;;;;;;;6.86;41.20;102903.19;5079172;28;20051;-72
2023/05/18 02:50:53;;;;;;;5.72;1.10;;;;;;;6.69;41.83;102904.78;5078122;28;20028;-72
2023/05/18 02:53:19;;;;;;;5.68;1.17;;;;;;;6.61;42.04;102898.63;5066494;28;20028;-71
2023/05/18 02:55:45;;;;;;;5.53;0.55;;;;;;;6.63;42.47;102900.38;5079617;28;20583;-71
2023/05/18 02:58:19;;;;;;;6.57;1.27;;;;;;;6.61;42.04;102899.50;5069909;28;20039;-71
2023/05/18 03:01:11;;;;;;;1.15;0.40;;;;;;;6.73;42.13;102895.25;5083273;27;20100;-72
2023/05/18 03:03:42;;;;;;;5.10;0.50;;;;;;;6.85;41.80;102898.84;5077725;28;20811;-72
2023/05/18 03:06:08;;;;;;;4.45;0.50;;;;;;;6.91;41.36;102891.09;5078817;28;20048;-71
2023/05/18 03:08:35;;;;;;;3.55;0.45;;;;;;;6.78;41.68;102891.84;5082624;28;20160;-72
2023/05/18 03:11:02;;;;;;;7.68;0.80;;;;;;;6.83;41.97;102891.88;5078393;28;20099;-70
2023/05/18 03:13:28;;;;;;;3.65;0.90;;;;;;;6.88;41.79;102892.78;5080981;28;20031;-71
2023/05/18 03:15:55;;;;;;;4.07;0.77;;;;;;;6.86;41.87;102898.00;5059029;28;20048;-71
2023/05/18 03:18:21;;;;;;;5.28;0.43;;;;;;;6.79;41.93;102895.31;5079713;28;20035;-72
2023/05/18 03:20:48;;;;;;;1.30;0.45;;;;;;;6.80;42.37;102903.13;5060126;28;20498;-71
2023/05/18 03:23:14;;;;;;;2.17;0.40;;;;;;;6.75;42.04;102904.78;5084794;28;20339;-71
2023/05/18 03:25:42;;;;;;;6.97;0.80;;;;;;;6.76;42.43;102903.97;5064544;28;20105;-72
2023/05/18 03:28:07;;;;;;;5.55;0.90;;;;;;;6.80;42.34;102903.13;5083010;28;20085;-70
2023/05/18 03:30:34;;;;;;;5.07;1.05;;;;;;;6.64;42.74;102911.63;5084507;28;20496;-70
2023/05/18 03:33:00;;;;;;;3.38;0.50;;;;;;;6.70;42.66;102906.50;5074873;28;20085;-70
2023/05/18 03:35:26;;;;;;;4.40;1.02;;;;;;;6.63;43.58;102904.72;5077283;28;20236;-71
2023/05/18 03:37:52;;;;;;;2.95;0.63;;;;;;;6.56;43.17;102908.13;5082547;27;21837;-71
2023/05/18 03:40:18;;;;;;;3.22;0.38;;;;;;;6.48;43.16;102906.31;5085561;27;20032;-72
2023/05/18 03:42:45;;;;;;;3.85;0.43;;;;;;;6.50;43.32;102909.78;5076837;27;21044;-71
2023/05/18 03:45:11;;;;;;;3.53;0.63;;;;;;;6.46;43.24;102917.53;5080863;27;20035;-72
2023/05/18 03:47:38;;;;;;;3.90;0.77;;;;;;;6.67;43.05;102917.75;5082181;27;20047;-72
2023/05/18 03:50:05;;;;;;;8.90;1.33;;;;;;;6.75;42.74;102925.59;5081120;27;20024;-71
2023/05/18 03:52:33;;;;;;;3.30;0.55;;;;;;;6.75;43.08;102928.19;5086864;28;20042;-70
2023/05/18 03:55:03;;;;;;;0.90;0.40;;;;;;;6.72;43.42;102922.13;5084512;27;20031;-72
2023/05/18 03:57:30;;;;;;;1.98;0.55;;;;;;;6.84;42.94;102923.09;5085787;27;20036;-72
2023/05/18 03:59:58;;;;;;;3.65;0.68;;;;;;;6.82;43.00;102918.72;5084636;27;20486;-71
2023/05/18 04:02:24;;;;;;;7.35;0.80;;;;;;;6.74;43.10;102918.66;5085026;27;20036;-72
2023/05/18 04:04:52;;;;;;;4.88;0.40;;;;;;;6.69;43.64;102915.16;5081959;27;20038;-71
2023/05/18 04:07:20;;;;;;;6.22;0.60;;;;;;;6.64;43.46;102917.72;5069695;28;20035;-72
2023/05/18 04:09:47;;;;;;;2.50;0.60;;;;;;;6.66;43.75;102912.53;5098765;27;20048;-71
2023/05/18 04:12:12;;;;;;;5.00;0.80;;;;;;;6.79;43.36;102922.16;5070859;28;20393;-71
2023/05/18 04:14:41;;;;;;;4.55;0.52;;;;;;;7.02;42.96;102918.88;5079998;27;20151;-71
2023/05/18 04:17:07;;;;;;;5.50;1.77;;;;;;;7.18;42.67;102915.56;5067981;28;20457;-70
2023/05/18 04:19:38;;;;;;;7.47;0.60;;;;;;;7.19;42.70;102912.06;5086644;27;20088;-71
2023/05/18 04:22:05;;;;;;;5.60;0.52;;;;;;;7.23;42.67;102919.03;5080873;27;20543;-71
2023/05/18 04:24:31;;;;;;;4.85;1.13;;;;;;;7.16;42.58;102922.47;5100084;27;20028;-71
2023/05/18 04:26:59;;;;;;;4.13;0.60;;;;;;;7.31;42.54;102925.19;5077447;27;20032;-71
2023/05/18 04:29:28;;;;;;;3.08;0.70;;;;;;;7.48;41.83;102929.59;5064598;27;20028;-70
2023/05/18 04:31:59;;;;;;;3.58;0.55;;;;;;;7.52;41.70;102931.38;5097206;27;20035;-72
2023/05/18 04:34:26;;;;;;;10.60;0.75;;;;;;;7.41;41.98;102933.03;5069966;27;20031;-70
2023/05/18 04:36:55;;;;;;;4.63;0.68;;;;;;;7.45;42.00;102937.41;5083442;27;20027;-72
2023/05/18 04:39:24;;;;;;;7.78;0.77;;;;;;;7.61;41.54;102941.00;5081376;27;20042;-71
2023/05/18 04:41:59;;;;;;;4.72;1.13;;;;;;;7.60;41.37;102947.94;5082257;27;20032;-71
2023/05/18 04:44:27;;;;;;;4.32;0.88;;;;;;;7.65;41.63;102938.41;5068175;28;20023;-71
2023/05/18 04:46:55;;;;;;;4.85;0.80;;;;;;;7.83;41.56;102947.19;5062931;27;20221;-71
2023/05/18 04:49:21;;;;;;;4.80;0.70;;;;;;;7.98;41.47;102942.03;5061827;28;20043;-71
2023/05/18 04:51:49;;;;;;;3.70;0.80;;;;;;;7.85;40.95;102945.47;5082385;27;20261;-72
2023/05/18 04:54:15;;;;;;;10.65;0.80;;;;;;;7.98;41.57;102951.56;5100800;27;20304;-70
2023/05/18 04:56:41;;;;;;;5.57;1.58;;;;;;;8.12;39.69;102945.56;5067962;27;20055;-72
2023/05/18 04:59:10;;;;;;;4.22;0.40;;;;;;;8.35;40.03;102960.38;5065071;28;20071;-70
2023/05/18 05:01:35;;;;;;;4.53;1.20;;;;;;;8.75;39.13;102960.50;5067327;28;20120;-71
2023/05/18 05:04:00;;;;;;;5.32;0.50;;;;;;;9.24;37.82;102952.66;5078221;27;20419;-71
2023/05/18 05:06:26;;;;;;;6.05;1.33;;;;;;;10.58;35.93;102950.41;5085242;27;20023;-71
2023/05/18 05:08:51;;;;;;;7.85;0.82;;;;;;;12.25;32.04;102946.97;5077899;27;20055;-72
2023/05/18 05:11:17;;;;;;;2.05;0.82;;;;;;;13.89;29.84;102943.28;5063301;27;20069;-72
2023/05/18 05:13:42;;;;;;;2.15;0.47;;;;;;;15.64;26.88;102944.25;5083728;27;20058;-71
2023/05/18 05:16:08;;;;;;;6.50;0.73;;;;;;;16.68;24.59;102940.19;5096768;27;20054;-72
2023/05/18 05:18:34;;;;;;;4.72;0.80;;;;;;;15.31;26.06;102951.34;5066424;27;20035;-70
2023/05/18 05:20:59;;;;;;;8.13;1.30;;;;;;;13.99;26.36;102949.22;5085619;27;20097;-71
2023/05/18 05:23:25;;;;;;;6.40;0.82;;;;;;;13.04;27.62;102959.75;5078513;27;20580;-70
2023/05/18 05:25:52;;;;;;;5.70;0.70;;;;;;;12.24;28.82;102956.59;5064212;28;20286;-70
2023/05/18 05:28:17;;;;;;;7.00;0.82;;;;;;;11.57;30.67;102960.88;5078706;27;20036;-70
2023/05/18 05:30:43;;;;;;;5.28;0.47;;;;;;;11.00;30.84;102964.06;5086234;27;20756;-71
2023/05/18 05:33:08;;;;;;;4.85;0.40;;;;;;;10.70;31.71;102953.81;5077516;27;20079;-71
2023/05/18 05:35:35;;;;;;;3.65;0.73;;;;;;;10.58;32.05;102963.47;5063347;27;20045;-71
2023/05/18 05:38:01;;;;;;;2.30;0.50;;;;;;;10.32;32.12;102970.59;5083490;28;20035;-72
2023/05/18 05:40:27;;;;;;;4.30;0.50;;;;;;;10.33;31.95;102972.34;5079565;27;20063;-72
2023/05/18 05:42:53;;;;;;;5.32;0.98;;;;;;;10.32;32.20;102974.09;5063721;28;20116;-72
2023/05/18 05:45:20;;;;;;;3.30;0.47;;;;;;;10.21;32.75;102973.28;5082442;27;20525;-71
2023/05/18 05:47:53;;;;;;;4.93;0.60;;;;;;;10.05;33.23;102972.47;5075642;27;20275;-72
2023/05/18 05:50:19;;;;;;;6.00;0.60;;;;;;;10.09;31.75;102975.97;5084139;27;20032;-72
2023/05/18 05:52:47;;;;;;;5.07;0.50;;;;;;;9.76;32.31;102976.03;5080503;27;20036;-72
2023/05/18 05:55:13;;;;;;;5.88;0.90;;;;;;;9.88;32.79;102976.88;5083815;28;20439;-72
2023/05/18 05:57:41;;;;;;;3.60;0.52;;;;;;;10.16;32.20;102977.66;5077007;28;20104;-70
2023/05/18 06:00:11;;;;;;;3.33;1.00;;;;;;;9.84;32.50;102977.81;5078989;28;20042;-70
2023/05/18 06:02:52;;;;;;;4.65;0.68;;;;;;;10.25;32.09;102975.00;5079673;27;20039;-72
2023/05/18 06:05:25;;;;;;;6.55;0.43;;;;;;;10.37;31.54;102976.66;5083658;27;20126;-70
2023/05/18 06:07:51;;;;;;;3.67;0.70;;;;;;;10.27;31.67;102975.00;5093318;27;20282;-70
2023/05/18 06:10:17;;;;;;;2.38;0.45;;;;;;;10.03;31.28;102979.44;5085617;27;20138;-71
2023/05/18 06:12:43;;;;;;;3.30;0.20;;;;;;;10.35;31.42;102984.53;5080332;28;20090;-72
2023/05/18 06:15:09;;;;;;;1.02;0.50;;;;;;;10.53;31.43;102980.09;5059728;28;20080;-72
2023/05/18 06:17:38;;;;;;;6.28;0.77;;;;;;;10.71;31.10;102979.97;5077020;28;20064;-71
2023/05/18 06:20:06;;;;;;;6.32;0.45;;;;;;;10.47;31.56;102982.72;5081758;28;20028;-71
2023/05/18 06:22:31;;;;;;;3.03;0.70;;;;;;;12.43;29.03;102979.94;5081653;28;20070;-70
2023/05/18 06:25:15;;;;;;;2.80;0.35;;;;;;;13.57;28.10;102984.22;5062812;28;20028;-72
2023/05/18 06:28:03;;;;;;;9.45;0.85;;;;;;;13.37;27.96;102981.94;5080586;28;20043;-72
2023/05/18 06:30:42;;;;;;;8.68;0.70;;;;;;;12.69;27.93;102972.59;5080995;28;20030;-71
2023/05/18 06:33:35;;;;;;;2.05;0.40;;;;;;;12.93;27.04;102973.06;5072072;28;20035;-72
2023/05/18 06:36:00;;;;;;;1.90;0.40;;;;;;;13.56;27.46;102982.44;5066620;28;20089;-71
2023/05/18 06:38:25;;;;;;;3.88;0.43;;;;;;;13.60;27.31;102978.03;5082948;28;20024;-72
2023/05/18 06:40:51;;;;;;;6.13;0.63;;;;;;;14.48;25.84;102977.09;5085599;28;20032;-72
2023/05/18 06:43:17;;;;;;;2.63;0.45;;;;;;;15.79;24.27;102974.56;5076432;28;20295;-71
2023/05/18 06:45:47;;;;;;;3.40;0.43;;;;;;;16.90;22.73;102971.19;5083392;28;20471;-72
2023/05/18 06:48:31;;;;;;;5.65;0.77;;;;;;;16.02;23.84;102979.22;5079792;28;20101;-73
2023/05/18 06:50:56;;;;;;;4.55;0.40;;;;;;;15.15;24.98;102982.47;5079713;28;20032;-72
2023/05/18 06:53:22;;;;;;;3.67;0.40;;;;;;;14.06;26.39;102988.47;5080118;28;20071;-72
2023/05/18 06:55:48;;;;;;;4.90;0.43;;;;;;;15.42;25.17;102986.16;5061235;28;20038;-72
2023/05/18 06:58:13;;;;;;;4.03;0.20;;;;;;;17.00;23.05;102983.16;5076633;28;20046;-71
2023/05/18 07:00:40;;;;;;;5.03;0.55;;;;;;;17.05;23.13;102983.88;5079921;28;20492;-71
2023/05/18 07:03:07;;;;;;;6.80;1.15;;;;;;;15.99;23.53;102990.69;5085303;28;20190;-71
2023/05/18 07:05:32;;;;;;;4.22;0.25;;;;;;;14.74;25.46;102986.97;5080610;28;20032;-72
2023/05/18 07:07:58;;;;;;;2.70;0.35;;;;;;;14.92;25.73;102988.28;5079696;28;20047;-72
2023/05/18 07:10:23;;;;;;;1.95;0.50;;;;;;;16.21;24.11;102983.00;5080499;28;20032;-71
2023/05/18 07:12:49;;;;;;;1.85;0.30;;;;;;;15.68;24.19;102992.47;5084646;27;20122;-71
2023/05/18 07:15:14;;;;;;;4.40;0.30;;;;;;;15.41;25.10;102988.81;5083394;27;20042;-71
2023/05/18 07:17:40;;;;;;;2.78;0.50;;;;;;;14.58;25.29;102996.16;5082236;27;20048;-72
2023/05/18 07:20:07;;;;;;;3.08;0.22;;;;;;;13.99;26.18;102991.28;5084446;27;20514;-71
2023/05/18 07:22:33;;;;;;;5.10;0.40;;;;;;;13.85;26.79;102995.06;5083337;27;20032;-71
2023/05/18 07:24:59;;;;;;;1.90;0.20;;;;;;;13.74;27.01;102991.75;5082472;27;20040;-71
2023/05/18 07:27:25;;;;;;;2.03;0.47;;;;;;;13.43;27.07;102997.59;5102522;27;20051;-71
2023/05/18 07:29:51;;;;;;;3.30;0.30;;;;;;;12.80;28.17;102997.78;5089407;27;20488;-73
2023/05/18 07:32:16;;;;;;;4.75;0.50;;;;;;;11.68;29.55;103000.06;5081412;28;20147;-72
2023/05/18 07:34:42;;;;;;;5.35;0.57;;;;;;;11.42;30.42;103001.22;5082950;27;20525;-71
2023/05/18 07:37:08;;;;;;;4.32;0.50;;;;;;;11.21;30.65;103009.25;5082791;27;20063;-71
2023/05/18 07:39:34;;;;;;;2.75;0.32;;;;;;;11.31;30.76;103003.06;5083591;27;20054;-71
2023/05/18 07:42:00;;;;;;;8.48;1.17;;;;;;;11.86;30.45;103009.50;5081621;27;20601;-71
2023/05/18 07:44:26;;;;;;;1.30;0.30;;;;;;;12.48;29.61;103006.97;5082621;27;20028;-72
2023/05/18 07:46:52;;;;;;;1.52;0.22;;;;;;;12.11;29.91;103010.09;5081765;27;20559;-72
2023/05/18 07:49:17;;;;;;;6.65;0.60;;;;;;;11.81;30.71;103009.53;5082282;27;20042;-71
2023/05/18 07:51:43;;;;;;;5.50;0.93;;;;;;;11.86;30.74;103007.72;5085472;27;20039;-72
2023/05/18 07:54:09;;;;;;;3.33;0.60;;;;;;;11.80;30.89;103005.22;5067259;28;20505;-70
2023/05/18 07:56:34;;;;;;;5.10;0.52;;;;;;;11.10;31.66;103001.47;5087215;27;20032;-71
2023/05/18 07:59:00;;;;;;;3.33;0.50;;;;;;;11.31;31.95;103010.91;5063697;28;20838;-71
2023/05/18 08:01:26;;;;;;;2.78;0.40;;;;;;;11.68;30.98;103010.53;5081676;27;20752;-71
2023/05/18 08:03:53;;;;;;;3.05;0.63;;;;;;;11.72;30.99;103007.00;5080332;28;20036;-72
2023/05/18 08:06:19;;;;;;;7.07;0.73;;;;;;;12.13;30.67;103008.28;5084638;27;20067;-72
2023/05/18 08:08:44;;;;;;;3.33;0.30;;;;;;;12.04;30.54;103008.41;5083432;27;21075;-72
2023/05/18 08:11:12;;;;;;;3.45;0.50;;;;;;;12.33;30.33;103004.53;5085746;27;20451;-72
2023/05/18 08:13:38;;;;;;;3.03;0.77;;;;;;;12.97;29.95;103006.25;5081083;27;20047;-71
2023/05/18 08:16:03;;;;;;;2.17;0.40;;;;;;;13.34;29.14;103008.25;5084290;27;20054;-71
2023/05/18 08:18:29;;;;;;;6.38;0.55;;;;;;;13.45;28.25;103011.56;5081928;27;20032;-72
2023/05/18 08:20:54;;;;;;;2.10;0.52;;;;;;;13.51;29.22;103006.16;5085589;27;20043;-73
2023/05/18 08:23:20;;;;;;;4.78;0.47;;;;;;;13.38;28.56;103012.53;5081947;27;20075;-72
2023/05/18 08:25:46;;;;;;;3.17;0.43;;;;;;;13.84;28.46;103003.81;5083479;27;20034;-70
2023/05/18 08:28:11;;;;;;;4.70;0.55;;;;;;;13.64;28.52;103009.47;5082168;27;20538;-71
2023/05/18 08:30:37;;;;;;;2.83;0.35;;;;;;;13.56;28.12;103005.22;5085854;27;20036;-72
2023/05/18 08:33:02;;;;;;;3.70;0.38;;;;;;;12.86;29.60;103005.56;5083452;27;20047;-72
2023/05/18 08:35:28;;;;;;;6.63;0.57;;;;;;;13.28;29.39;103003.13;5084624;27;20031;-71
2023/05/18 08:37:54;;;;;;;1.88;0.30;;;;;;;13.81;29.06;102997.75;5081639;27;20054;-71
2023/05/18 08:40:19;;;;;;;6.00;0.47;;;;;;;13.55;29.34;102993.84;5079846;28;20032;-72
2023/05/18 08:43:01;;;;;;;5.03;0.60;;;;;;;13.38;29.39;102999.41;5085745;28;20088;-71
2023/05/18 08:45:46;;;;;;;7.85;0.90;;;;;;;13.57;29.26;102997.34;5081292;27;20039;-71
2023/05/18 08:48:15;;;;;;;4.03;0.30;;;;;;;14.18;28.02;102995.22;5083461;27;20063;-71
2023/05/18 08:50:43;;;;;;;2.72;0.65;;;;;;;14.22;28.09;102994.28;5102523;27;20035;-72
2023/05/18 08:53:10;;;;;;;4.78;0.43;;;;;;;14.27;28.48;102992.41;5068494;28;20040;-71
2023/05/18 08:55:36;;;;;;;2.60;0.45;;;;;;;14.11;28.53;102991.00;5080217;27;20032;-72
2023/05/18 08:58:06;;;;;;;2.28;0.40;;;;;;;14.33;28.11;102989.63;5084499;28;21028;-72
2023/05/18 09:00:31;;;;;;;3.42;0.50;;;;;;;14.24;27.94;102994.25;5080629;27;20094;-72
2023/05/18 09:02:57;;;;;;;2.97;0.55;;;;;;;13.53;29.33;103001.75;5083444;27;20661;-72
2023/05/18 09:05:22;;;;;;;5.07;0.63;;;;;;;12.79;30.55;102998.69;5081944;27;20450;-72
2023/05/18 09:07:53;;;;;;;5.75;0.45;;;;;;;13.04;29.97;103000.00;5080031;27;20650;-72
2023/05/18 09:10:19;;;;;;;3.13;0.30;;;;;;;13.28;29.35;103005.75;5083357;27;20147;-72
2023/05/18 09:12:46;;;;;;;3.22;0.45;;;;;;;13.20;30.16;103000.59;5084848;27;20040;-71
2023/05/18 09:15:14;;;;;;;4.65;0.40;;;;;;;14.42;29.03;102995.63;5082292;27;20400;-71
2023/05/18 09:17:40;;;;;;;6.78;0.45;;;;;;;14.12;28.03;102998.88;5081656;27;20433;-72
2023/05/18 09:20:06;;;;;;;10.00;0.45;;;;;;;13.09;29.62;103003.44;5084614;27;20028;-72
2023/05/18 09:22:34;;;;;;;4.75;0.43;;;;;;;13.21;28.87;103009.38;5085500;27;20063;-72
2023/05/18 09:25:04;;;;;;;5.70;0.40;;;;;;;12.57;30.86;102998.97;5085263;27;20032;-71
2023/05/18 09:27:30;;;;;;;4.95;0.40;;;;;;;13.41;30.41;102999.38;5085146;27;20039;-71
2023/05/18 09:29:57;;;;;;;3.30;0.32;;;;;;;14.32;28.30;102994.94;5082748;27;20066;-70
2023/05/18 09:32:25;;;;;;;1.42;0.35;;;;;;;14.85;28.13;102991.97;5077453;27;20031;-72
2023/05/18 09:34:51;;;;;;;3.67;0.30;;;;;;;14.93;28.04;102993.53;5068603;28;20050;-72
2023/05/18 09:37:18;;;;;;;4.28;0.30;;;;;;;13.69;28.87;102993.63;5078596;27;20108;-72
2023/05/18 09:39:45;;;;;;;4.43;0.65;;;;;;;14.31;28.02;102991.44;5087188;28;20496;-72
2023/05/18 09:42:11;;;;;;;4.50;0.40;;;;;;;14.48;27.81;102998.13;5081155;27;20042;-71
2023/05/18 09:44:39;;;;;;;1.20;0.50;;;;;;;14.57;27.55;102997.91;5083131;27;20055;-72
2023/05/18 09:47:09;;;;;;;3.65;0.45;;;;;;;15.50;27.29;102993.84;5079488;27;20092;-71
2023/05/18 09:49:36;;;;;;;2.38;0.90;;;;;;;15.63;26.77;102989.09;5086076;28;20091;-71
2023/05/18 09:52:05;;;;;;;3.65;0.60;;;;;;;16.19;25.44;102979.56;5082009;27;20136;-71
2023/05/18 09:54:31;;;;;;;4.78;0.47;;;;;;;14.90;26.82;102998.88;5082905;27;20028;-71
2023/05/18 09:56:57;;;;;;;3.70;0.80;;;;;;;14.45;28.08;102999.03;5083256;28;20557;-71
2023/05/18 09:59:23;;;;;;;4.88;0.50;;;;;;;14.38;28.66;102994.78;5084767;27;20073;-72
2023/05/18 10:02:04;;;;;;;1.40;0.30;;;;;;;13.93;28.60;103001.00;5082474;28;20373;-71
2023/05/18 10:04:41;;;;;;;4.82;0.85;;;;;;;14.71;28.96;103003.72;5080557;27;20142;-71
2023/05/18 10:07:14;;;;;;;2.08;0.30;;;;;;;15.68;26.84;102987.19;5086738;27;20050;-72
2023/05/18 10:09:43;;;;;;;5.43;0.77;;;;;;;16.04;26.64;102987.06;5084296;28;20028;-72
2023/05/18 10:12:21;;;;;;;4.07;0.40;;;;;;;16.64;25.95;102986.06;5088199;27;20137;-71
2023/05/18 10:14:48;;;;;;;2.22;0.30;;;;;;;17.14;25.13;102988.84;5081276;27;20290;-71
2023/05/18 10:17:14;;;;;;;7.45;0.57;;;;;;;16.97;25.34;102989.41;5081995;28;20063;-72
2023/05/18 10:19:41;;;;;;;6.93;0.70;;;;;;;15.61;25.83;102988.28;5079433;28;20507;-71
2023/05/18 10:22:08;;;;;;;3.13;0.30;;;;;;;15.18;26.87;102988.50;5079871;27;20453;-72
2023/05/18 10:24:38;;;;;;;3.78;0.40;;;;;;;16.15;25.79;102984.97;5076400;28;20036;-72
2023/05/18 10:27:08;;;;;;;5.85;0.32;;;;;;;16.72;24.92;102968.22;5083600;28;20043;-72
2023/05/18 10:29:36;;;;;;;7.63;0.57;;;;;;;16.81;26.14;102978.50;5066024;28;22296;-71
2023/05/18 10:32:05;;;;;;;5.00;0.85;;;;;;;16.21;26.12;102982.16;5081512;28;20571;-70
2023/05/18 10:34:31;;;;;;;6.13;1.40;;;;;;;16.52;25.67;102986.47;5081937;28;20028;-72
2023/05/18 10:37:00;;;;;;;4.78;1.05;;;;;;;16.77;25.92;102976.88;5086382;28;20464;-72
2023/05/18 10:39:28;;;;;;;2.05;0.30;;;;;;;15.81;26.04;102978.03;5080396;28;20031;-72
2023/05/18 10:41:56;;;;;;;5.15;0.30;;;;;;;14.85;26.84;102984.09;5080416;28;20046;-71
2023/05/18 10:44:23;;;;;;;7.18;0.82;;;;;;;14.11;28.58;102983.13;5076150;28;20488;-70
2023/05/18 10:46:49;;;;;;;6.30;0.73;;;;;;;14.66;28.96;102987.16;5076794;28;20054;-72
2023/05/18 10:49:16;;;;;;;3.97;0.68;;;;;;;15.54;26.99;102985.81;5073487;28;20505;-72
2023/05/18 10:51:45;;;;;;;0.93;0.30;;;;;;;16.05;26.26;102972.97;5086440;27;20126;-71
2023/05/18 10:54:12;;;;;;;1.27;0.50;;;;;;;15.99;26.71;102977.50;5083548;28;20435;-72
2023/05/18 10:56:42;;;;;;;4.85;0.75;;;;;;;15.04;27.12;102974.84;5078951;27;20557;-71
2023/05/18 10:59:09;;;;;;;4.05;0.40;;;;;;;15.87;27.90;102977.00;5086779;27;20054;-72
2023/05/18 11:01:40;;;;;;;3.45;0.30;;;;;;;15.33;26.52;102981.13;5081849;27;20367;-72
2023/05/18 11:04:16;;;;;;;4.65;0.60;;;;;;;14.98;26.48;102980.25;5072203;27;20635;-71
2023/05/18 11:06:41;;;;;;;2.58;1.05;;;;;;;14.33;28.58;102973.84;5064518;27;20084;-70
2023/05/18 11:09:07;;;;;;;8.57;0.60;;;;;;;14.84;27.69;102977.09;5086449;27;20040;-71
2023/05/18 11:11:54;;;;;;;1.88;0.63;;;;;;;15.15;28.70;102972.78;5081871;27;20097;-71
2023/05/18 11:14:31;;;;;;;6.80;0.80;;;;;;;15.58;28.24;102971.63;5080781;27;20051;-71
2023/05/18 11:17:24;;;;;;;5.03;0.55;;;;;;;15.47;27.39;102972.84;5099383;27;20109;-71
2023/05/18 11:20:16;;;;;;;6.32;0.80;;;;;;;14.79;28.59;102987.75;5085000;27;20647;-72
2023/05/18 11:22:50;;;;;;;;;;;;;;;13.95;28.96;102977.31;5079088;27;20039;-71
2023/05/18 11:25:25;;;;;;;4.90;0.70;;;;;;;14.36;28.75;102986.94;5071204;28;19923;-72
2023/05/18 11:28:04;;;;;;;3.58;0.60;;;;;;;15.08;27.42;102978.22;5086511;27;20036;-71
2023/05/18 11:30:32;;;;;;;4.80;0.65;;;;;;;15.61;27.19;102977.75;5070367;27;20088;-70
2023/05/18 11:33:07;;;;;;;2.38;0.30;;;;;;;16.25;26.04;102973.25;5085000;27;20043;-72
2023/05/18 11:35:33;;;;;;;6.07;0.38;;;;;;;16.33;24.38;102963.31;5077576;27;20043;-71
2023/05/18 11:38:08;;;;;;;1.90;0.40;;;;;;;16.40;25.13;102959.56;5100953;27;20108;-71